createdAt,value
2023-04-09T00:01:07.502Z,7.10
2023-04-09T00:03:36.773Z,7.00
2023-04-09T00:06:08.768Z,6.90
2023-04-09T00:08:36.868Z,6.60
2023-04-09T00:11:05.769Z,6.40
2023-04-09T00:13:39.219Z,6.10
2023-04-09T00:16:09.623Z,6.00
2023-04-09T00:43:44.640Z,4.60
2023-04-09T00:46:22.449Z,4.40
2023-04-09T00:48:55.657Z,4.30
2023-04-09T00:51:37.850Z,4.30
2023-04-09T00:54:10.819Z,4.20
2023-04-09T00:56:55.894Z,4.10
2023-04-09T00:59:31.534Z,4.10
2023-04-09T01:02:06.074Z,4.10
2023-04-09T01:08:09.209Z,4.00
2023-04-09T01:10:51.174Z,3.80
2023-04-09T01:13:39.891Z,3.70
2023-04-09T01:16:22.670Z,3.70
2023-04-09T01:19:07.282Z,3.80
2023-04-09T01:21:47.452Z,3.80
2023-04-09T01:24:39.013Z,3.90
2023-04-09T01:27:12.024Z,4.00
2023-04-09T01:30:24.661Z,4.10
2023-04-09T01:35:54.071Z,4.10
2023-04-09T01:41:25.043Z,3.80
2023-04-09T01:44:23.930Z,3.60
2023-04-09T01:47:28.543Z,3.60
2023-04-09T01:49:59.724Z,3.50
2023-04-09T01:52:31.996Z,3.70
2023-04-09T01:55:04.891Z,3.70
2023-04-09T01:57:39.494Z,3.70
2023-04-09T02:00:27.633Z,3.80
2023-04-09T02:04:14.337Z,3.80
2023-04-09T02:07:10.765Z,3.70
2023-04-09T02:12:44.405Z,3.40
2023-04-09T02:15:25.791Z,3.30
2023-04-09T02:18:22.400Z,3.20
2023-04-09T02:20:55.036Z,3.00
2023-04-09T02:23:44.413Z,2.90
2023-04-09T02:26:15.494Z,2.90
2023-04-09T02:28:48.732Z,3.00
2023-04-09T02:31:21.474Z,3.00
2023-04-09T02:33:52.347Z,3.10
2023-04-09T02:36:24.346Z,3.10
2023-04-09T02:39:27.183Z,3.00
2023-04-09T02:42:03.547Z,2.90
2023-04-09T02:44:36.377Z,2.70
2023-04-09T02:47:13.788Z,2.60
2023-04-09T02:49:58.876Z,2.70
2023-04-09T02:52:34.245Z,2.80
2023-04-09T02:55:11.976Z,2.90
2023-04-09T02:57:56.508Z,3.10
2023-04-09T03:00:31.228Z,3.10
2023-04-09T03:03:03.463Z,3.20
2023-04-09T03:05:35.742Z,3.30
2023-04-09T03:08:19.677Z,3.30
2023-04-09T03:10:52.927Z,3.30
2023-04-09T03:13:24.909Z,3.40
2023-04-09T03:15:57.583Z,3.50
2023-04-09T03:18:27.891Z,3.60
2023-04-09T03:21:02.771Z,3.60
2023-04-09T03:23:40.365Z,3.60
2023-04-09T03:26:21.430Z,3.50
2023-04-09T03:29:18.188Z,3.30
2023-04-09T03:31:53.278Z,3.10
2023-04-09T03:34:35.715Z,3.00
2023-04-09T03:37:29.605Z,2.80
2023-04-09T03:40:06.027Z,2.80
2023-04-09T03:42:50.923Z,2.90
2023-04-09T03:45:25.758Z,2.80
2023-04-09T03:48:00.119Z,2.60
2023-04-09T03:50:30.088Z,2.60
2023-04-09T03:53:19.498Z,2.60
2023-04-09T03:55:50.714Z,2.40
2023-04-09T03:58:25.652Z,2.10
2023-04-09T04:01:11.545Z,1.90
2023-04-09T04:03:45.073Z,1.80
2023-04-09T04:06:17.118Z,1.80
2023-04-09T04:09:03.823Z,1.80
2023-04-09T04:14:38.464Z,1.70
2023-04-09T04:17:11.902Z,1.70
2023-04-09T04:19:52.134Z,1.50
2023-04-09T04:25:44.036Z,2.00
2023-04-09T04:28:18.016Z,2.30
2023-04-09T04:31:01.889Z,2.40
2023-04-09T04:33:42.838Z,2.30
2023-04-09T04:36:34.277Z,2.10
2023-04-09T04:39:28.461Z,2.00
2023-04-09T04:42:22.819Z,1.90
2023-04-09T04:45:03.149Z,1.90
2023-04-09T04:47:41.038Z,1.90
2023-04-09T04:50:17.852Z,1.70
2023-04-09T04:52:51.143Z,1.60
2023-04-09T04:55:39.936Z,1.60
2023-04-09T04:58:31.292Z,1.50
2023-04-09T05:01:04.848Z,1.50
2023-04-09T05:03:51.063Z,1.60
2023-04-09T05:06:36.090Z,1.50
2023-04-09T05:09:19.083Z,1.50
2023-04-09T05:14:50.272Z,1.70
2023-04-09T05:17:41.426Z,1.60
2023-04-09T05:20:40.885Z,1.60
2023-04-09T05:23:15.621Z,1.70
2023-04-09T05:25:47.912Z,1.80
2023-04-09T05:28:20.292Z,1.90
2023-04-09T05:30:56.609Z,1.90
2023-04-09T05:33:30.390Z,2.00
2023-04-09T05:39:09.280Z,2.30
2023-04-09T05:41:38.934Z,2.40
2023-04-09T05:44:13.683Z,2.50
2023-04-09T05:46:46.308Z,2.50
2023-04-09T05:49:17.773Z,2.60
2023-04-09T05:51:53.078Z,2.90
2023-04-09T05:54:35.465Z,3.50
2023-04-09T05:57:06.545Z,4.20
2023-04-09T05:59:40.040Z,4.70
2023-04-09T06:02:10.747Z,5.30
2023-04-09T06:04:47.824Z,5.70
2023-04-09T06:07:19.903Z,6.10
2023-04-09T06:10:03.056Z,6.60
2023-04-09T06:12:33.115Z,7.10
2023-04-09T06:15:01.904Z,7.60
2023-04-09T06:17:33.148Z,8.00
2023-04-09T06:20:04.902Z,8.70
2023-04-09T06:22:39.073Z,9.20
2023-04-09T06:25:11.610Z,9.70
2023-04-09T06:27:42.173Z,10.30
2023-04-09T06:30:14.829Z,10.90
2023-04-09T06:32:55.626Z,11.30
2023-04-09T06:35:27.795Z,11.70
2023-04-09T06:38:07.577Z,11.80
2023-04-09T06:40:41.676Z,12.40
2023-04-09T06:43:12.984Z,13.00
2023-04-09T06:45:43.230Z,13.30
2023-04-09T06:48:14.575Z,13.90
2023-04-09T06:50:49.794Z,13.90
2023-04-09T06:53:25.946Z,13.90
2023-04-09T06:56:03.568Z,13.80
2023-04-09T06:58:33.775Z,14.20
2023-04-09T07:01:03.456Z,14.20
2023-04-09T07:03:34.148Z,14.70
2023-04-09T07:06:07.074Z,15.20
2023-04-09T07:08:44.098Z,15.40
2023-04-09T07:11:14.473Z,15.80
2023-04-09T07:13:46.635Z,16.20
2023-04-09T07:16:24.705Z,16.20
2023-04-09T07:18:54.914Z,15.80
2023-04-09T07:21:26.995Z,16.10
2023-04-09T07:23:57.875Z,16.70
2023-04-09T07:26:29.418Z,16.80
2023-04-09T07:28:58.796Z,17.00
2023-04-09T07:31:33.341Z,17.10
2023-04-09T07:34:04.597Z,16.70
2023-04-09T07:36:33.400Z,16.70
2023-04-09T07:39:11.416Z,17.40
2023-04-09T07:41:41.676Z,18.30
2023-04-09T07:44:11.347Z,18.60
2023-04-09T07:46:41.494Z,19.50
2023-04-09T07:49:12.114Z,20.10
2023-04-09T07:51:42.866Z,20.50
2023-04-09T07:54:21.691Z,20.60
2023-04-09T07:56:54.525Z,21.10
2023-04-09T07:59:25.298Z,21.00
2023-04-09T08:02:06.218Z,21.50
2023-04-09T08:04:34.747Z,21.60
2023-04-09T08:07:02.945Z,22.00
2023-04-09T08:09:32.418Z,21.80
2023-04-09T08:12:01.149Z,21.70
2023-04-09T08:14:29.336Z,22.60
2023-04-09T08:16:57.517Z,23.00
2023-04-09T08:19:25.847Z,23.60
2023-04-09T08:21:54.131Z,22.00
2023-04-09T08:24:22.505Z,21.90
2023-04-09T08:26:52.042Z,21.70
2023-04-09T08:29:20.181Z,21.00
2023-04-09T08:31:48.547Z,19.70
2023-04-09T08:34:17.495Z,19.70
2023-04-09T08:36:47.471Z,20.10
2023-04-09T08:39:16.946Z,21.30
2023-04-09T08:41:46.328Z,22.40
2023-04-09T08:44:16.711Z,23.40
2023-04-09T08:46:45.021Z,24.70
2023-04-09T08:49:14.287Z,23.80
2023-04-09T08:51:47.776Z,23.80
2023-04-09T08:54:19.234Z,24.50
2023-04-09T08:56:47.751Z,23.70
2023-04-09T08:59:19.379Z,23.00
2023-04-09T09:01:52.656Z,21.70
2023-04-09T09:04:21.290Z,20.00
2023-04-09T09:06:49.524Z,18.90
2023-04-09T09:09:19.712Z,20.10
2023-04-09T09:11:51.983Z,22.20
2023-04-09T09:14:21.781Z,24.30
2023-04-09T09:17:08.380Z,23.80
2023-04-09T09:19:37.343Z,24.30
2023-04-09T09:22:12.566Z,24.40
2023-04-09T09:24:50.392Z,25.70
2023-04-09T09:27:34.724Z,26.30
2023-04-09T09:30:06.679Z,24.50
2023-04-09T09:32:35.618Z,22.20
2023-04-09T09:35:06.656Z,20.80
2023-04-09T09:37:35.911Z,20.00
2023-04-09T09:40:04.990Z,19.20
2023-04-09T09:42:33.297Z,18.70
2023-04-09T09:45:19.293Z,18.00
2023-04-09T09:47:48.327Z,17.70
2023-04-09T09:50:17.052Z,17.50
2023-04-09T09:52:48.211Z,17.70
2023-04-09T09:55:19.495Z,17.70
2023-04-09T09:57:51.604Z,17.30
2023-04-09T10:00:25.303Z,16.70
2023-04-09T10:03:00.023Z,16.70
2023-04-09T10:05:29.406Z,17.30
2023-04-09T10:07:59.111Z,19.70
2023-04-09T10:10:28.412Z,21.30
2023-04-09T10:12:57.540Z,19.70
2023-04-09T10:15:29.682Z,19.80
2023-04-09T10:17:59.065Z,19.70
2023-04-09T10:20:35.374Z,19.10
2023-04-09T10:23:12.624Z,18.80
2023-04-09T10:25:41.426Z,19.30
2023-04-09T10:28:18.887Z,22.00
2023-04-09T10:30:48.839Z,22.80
2023-04-09T10:33:26.590Z,20.70
2023-04-09T10:35:58.536Z,18.70
2023-04-09T10:38:38.503Z,17.60
2023-04-09T10:41:16.638Z,17.30
2023-04-09T10:43:48.263Z,17.70
2023-04-09T10:46:32.383Z,17.80
2023-04-09T10:49:13.636Z,17.60
2023-04-09T10:51:42.503Z,18.20
2023-04-09T10:54:52.147Z,19.50
2023-04-09T10:57:22.649Z,19.70
2023-04-09T10:59:53.495Z,18.70
2023-04-09T11:03:05.853Z,17.40
2023-04-09T11:05:38.069Z,16.50
2023-04-09T11:08:09.622Z,16.50
2023-04-09T11:10:38.712Z,17.10
2023-04-09T11:13:07.287Z,17.80
2023-04-09T11:15:37.619Z,17.60
2023-04-09T11:18:09.836Z,17.20
2023-04-09T11:20:38.071Z,16.70
2023-04-09T11:23:07.539Z,16.60
2023-04-09T11:25:36.126Z,17.50
2023-04-09T11:28:06.201Z,18.60
2023-04-09T11:30:35.908Z,18.70
2023-04-09T11:33:04.402Z,19.10
2023-04-09T11:35:37.005Z,19.30
2023-04-09T11:38:08.960Z,19.60
2023-04-09T11:40:43.449Z,19.60
2023-04-09T11:43:11.864Z,18.80
2023-04-09T11:45:40.305Z,18.00
2023-04-09T11:48:09.732Z,17.90
2023-04-09T11:50:39.684Z,17.40
2023-04-09T11:53:19.445Z,16.90
2023-04-09T11:55:51.309Z,16.90
2023-04-09T11:58:19.714Z,17.20
2023-04-09T12:00:47.893Z,17.20
2023-04-09T12:03:17.280Z,17.40
2023-04-09T12:05:51.308Z,18.50
2023-04-09T12:08:25.834Z,21.20
2023-04-09T12:10:54.566Z,23.20
2023-04-09T12:13:22.884Z,22.10
2023-04-09T12:15:51.684Z,20.50
2023-04-09T12:18:23.415Z,19.10
2023-04-09T12:20:53.198Z,18.80
2023-04-09T12:23:21.534Z,18.60
2023-04-09T12:25:49.802Z,18.70
2023-04-09T12:28:19.180Z,19.30
2023-04-09T12:30:49.133Z,19.70
2023-04-09T12:33:17.600Z,19.50
2023-04-09T12:35:46.356Z,19.20
2023-04-09T12:38:16.123Z,18.90
2023-04-09T12:40:44.378Z,18.70
2023-04-09T12:43:12.665Z,19.40
2023-04-09T12:45:41.139Z,19.70
2023-04-09T12:48:09.493Z,19.00
2023-04-09T12:50:37.688Z,18.60
2023-04-09T12:53:06.465Z,18.60
2023-04-09T12:55:36.159Z,18.90
2023-04-09T12:58:04.599Z,19.10
2023-04-09T13:00:33.464Z,20.20
2023-04-09T13:03:01.781Z,22.50
2023-04-09T13:05:31.545Z,23.40
2023-04-09T13:07:59.991Z,23.10
2023-04-09T13:10:28.408Z,22.00
2023-04-09T13:12:58.340Z,20.60
2023-04-09T13:15:27.684Z,19.10
2023-04-09T13:17:56.066Z,18.20
2023-04-09T13:20:25.018Z,17.60
2023-04-09T13:22:53.225Z,17.30
2023-04-09T13:25:21.746Z,17.40
2023-04-09T13:27:50.245Z,17.80
2023-04-09T13:30:20.105Z,18.10
2023-04-09T13:32:48.421Z,17.40
2023-04-09T13:35:17.041Z,17.50
2023-04-09T13:37:45.288Z,18.50
2023-04-09T13:40:14.297Z,20.10
2023-04-09T13:42:42.357Z,21.20
2023-04-09T13:45:11.343Z,21.60
2023-04-09T13:47:41.306Z,22.00
2023-04-09T13:50:13.251Z,20.80
2023-04-09T13:52:41.763Z,20.50
2023-04-09T13:55:12.840Z,21.10
2023-04-09T13:57:41.534Z,20.60
2023-04-09T14:00:11.571Z,19.20
2023-04-09T14:02:42.166Z,18.10
2023-04-09T14:05:11.660Z,17.70
2023-04-09T14:07:40.533Z,17.30
2023-04-09T14:10:10.330Z,16.80
2023-04-09T14:12:38.601Z,16.70
2023-04-09T14:15:08.487Z,17.70
2023-04-09T14:17:37.020Z,18.50
2023-04-09T14:20:08.095Z,18.40
2023-04-09T14:22:36.451Z,18.90
2023-04-09T14:25:07.310Z,18.40
2023-04-09T14:27:35.940Z,18.10
2023-04-09T14:30:05.018Z,17.80
2023-04-09T14:32:33.528Z,17.90
2023-04-09T14:35:02.922Z,19.20
2023-04-09T14:37:33.455Z,20.30
2023-04-09T14:40:02.136Z,20.80
2023-04-09T14:42:30.291Z,20.30
2023-04-09T14:44:58.329Z,20.30
2023-04-09T14:47:26.470Z,20.70
2023-04-09T14:49:55.125Z,21.50
2023-04-09T14:52:23.625Z,22.50
2023-04-09T14:54:54.114Z,22.00
2023-04-09T14:57:22.429Z,21.20
2023-04-09T14:59:51.268Z,21.30
2023-04-09T15:02:20.156Z,21.10
2023-04-09T15:07:30.902Z,20.30
2023-04-09T15:09:59.903Z,20.30
2023-04-09T15:12:28.431Z,19.70
2023-04-09T15:14:56.626Z,19.80
2023-04-09T15:17:24.980Z,20.20
2023-04-09T15:19:54.301Z,19.50
2023-04-09T15:22:22.754Z,18.70
2023-04-09T15:24:52.614Z,17.90
2023-04-09T15:27:20.917Z,17.30
2023-04-09T15:29:48.957Z,16.70
2023-04-09T15:32:16.972Z,16.40
2023-04-09T15:34:45.360Z,16.80
2023-04-09T15:37:13.463Z,17.30
2023-04-09T15:39:41.492Z,17.80
2023-04-09T15:42:13.527Z,17.80
2023-04-09T15:44:42.785Z,17.50
2023-04-09T15:47:10.827Z,17.10
2023-04-09T15:49:38.837Z,17.20
2023-04-09T15:52:06.931Z,17.00
2023-04-09T15:54:34.963Z,17.00
2023-04-09T15:57:04.163Z,16.90
2023-04-09T15:59:33.545Z,16.90
2023-04-09T16:02:01.619Z,16.90
2023-04-09T16:04:29.727Z,16.80
2023-04-09T16:06:57.797Z,16.60
2023-04-09T16:09:25.950Z,16.70
2023-04-09T16:11:54.449Z,16.70
2023-04-09T16:14:22.582Z,16.70
2023-04-09T16:16:52.144Z,16.50
2023-04-09T16:19:21.218Z,16.50
2023-04-09T16:21:49.275Z,16.80
2023-04-09T16:24:17.290Z,17.00
2023-04-09T16:26:47.360Z,17.10
2023-04-09T16:29:16.248Z,17.00
2023-04-09T16:31:44.389Z,17.10
2023-04-09T16:34:13.922Z,16.90
2023-04-09T16:36:41.946Z,16.70
2023-04-09T16:39:10.808Z,16.60
2023-04-09T16:41:39.343Z,16.50
2023-04-09T16:44:07.594Z,16.20
2023-04-09T16:46:35.739Z,15.90
2023-04-09T16:49:03.744Z,15.60
2023-04-09T16:51:33.207Z,15.40
2023-04-09T16:54:01.247Z,15.20
2023-04-09T16:56:29.256Z,15.10
2023-04-09T16:58:57.271Z,15.00
2023-04-09T17:01:25.630Z,15.00
2023-04-09T17:03:53.845Z,15.00
2023-04-09T17:06:21.926Z,14.80
2023-04-09T17:08:51.768Z,14.70
2023-04-09T17:11:21.123Z,14.60
2023-04-09T17:13:49.148Z,14.70
2023-04-09T17:16:18.149Z,14.70
2023-04-09T17:18:47.080Z,14.60
2023-04-09T17:21:15.685Z,14.60
2023-04-09T17:23:44.813Z,14.60
2023-04-09T17:26:14.615Z,14.50
2023-04-09T17:28:42.833Z,14.50
2023-04-09T17:31:15.882Z,14.50
2023-04-09T17:33:47.944Z,14.40
2023-04-09T17:36:18.699Z,14.30
2023-04-09T17:38:47.246Z,14.20
2023-04-09T17:41:16.666Z,14.20
2023-04-09T17:43:44.727Z,14.10
2023-04-09T17:46:14.371Z,14.00
2023-04-09T17:48:42.568Z,13.80
2023-04-09T17:51:16.349Z,13.80
2023-04-09T17:53:44.413Z,13.60
2023-04-09T17:56:17.558Z,13.40
2023-04-09T17:58:46.471Z,13.20
2023-04-09T18:01:14.737Z,13.00
2023-04-09T18:03:43.182Z,12.80
2023-04-09T18:06:11.662Z,12.50
2023-04-09T18:08:41.608Z,12.20
2023-04-09T18:11:13.323Z,11.90
2023-04-09T18:13:43.292Z,11.80
2023-04-09T18:16:12.456Z,11.90
2023-04-09T18:18:41.262Z,11.80
2023-04-09T18:21:09.534Z,11.70
2023-04-09T18:23:39.420Z,11.60
2023-04-09T18:26:07.667Z,11.50
2023-04-09T18:28:35.865Z,11.40
2023-04-09T18:31:05.858Z,11.30
2023-04-09T18:33:34.192Z,11.20
2023-04-09T18:36:03.728Z,11.20
2023-04-09T18:38:31.876Z,11.30
2023-04-09T18:41:01.463Z,11.30
2023-04-09T18:43:29.505Z,11.20
2023-04-09T18:45:58.130Z,11.20
2023-04-09T18:48:27.687Z,11.10
2023-04-09T18:50:55.783Z,11.10
2023-04-09T18:53:25.030Z,11.00
2023-04-09T18:55:53.037Z,10.90
2023-04-09T18:58:21.418Z,10.90
2023-04-09T19:00:51.393Z,10.80
2023-04-09T19:03:21.674Z,10.70
2023-04-09T19:05:52.465Z,10.60
2023-04-09T19:08:20.517Z,10.50
2023-04-09T19:10:48.603Z,10.40
2023-04-09T19:13:16.859Z,10.30
2023-04-09T19:15:44.991Z,10.30
2023-04-09T19:18:13.083Z,10.20
2023-04-09T19:20:41.437Z,10.10
2023-04-09T19:23:10.899Z,10.00
2023-04-09T19:25:38.946Z,9.90
2023-04-09T19:28:06.971Z,9.70
2023-04-09T19:30:35.063Z,9.70
2023-04-09T19:33:03.133Z,9.60
2023-04-09T19:35:32.964Z,9.60
2023-04-09T19:38:04.158Z,9.60
2023-04-09T19:40:34.504Z,9.60
2023-04-09T19:43:02.642Z,9.40
2023-04-09T19:45:30.848Z,9.20
2023-04-09T19:47:58.969Z,9.00
2023-04-09T19:50:27.320Z,8.80
2023-04-09T19:52:56.445Z,8.60
2023-04-09T19:55:25.075Z,8.30
2023-04-09T19:57:54.409Z,8.00
2023-04-09T20:00:24.450Z,8.20
2023-04-09T20:02:52.699Z,8.20
2023-04-09T20:05:21.321Z,8.20
2023-04-09T20:07:49.506Z,8.10
2023-04-09T20:10:18.054Z,8.20
2023-04-09T20:12:49.106Z,8.40
2023-04-09T20:15:20.035Z,8.30
2023-04-09T20:17:48.773Z,8.00
2023-04-09T20:20:19.760Z,7.60
2023-04-09T20:22:55.668Z,7.40
2023-04-09T20:25:24.874Z,7.30
2023-04-09T20:27:55.018Z,7.10
2023-04-09T20:30:24.424Z,6.80
2023-04-09T20:32:52.507Z,6.70
2023-04-09T20:35:20.903Z,6.70
2023-04-09T20:37:49.925Z,6.50
2023-04-09T20:40:18.127Z,6.40
2023-04-09T20:42:46.206Z,6.10
2023-04-09T20:45:14.250Z,6.10
2023-04-09T20:47:43.650Z,6.10
2023-04-09T20:50:12.588Z,6.20
2023-04-09T20:52:40.686Z,6.20
2023-04-09T20:55:09.647Z,6.10
2023-04-09T20:57:37.726Z,6.00
2023-04-09T21:00:07.275Z,5.90
2023-04-09T21:02:35.510Z,5.90
2023-04-09T21:05:15.360Z,5.80
2023-04-09T21:07:47.474Z,5.60
2023-04-09T21:10:15.588Z,5.40
2023-04-09T21:12:43.647Z,5.20
2023-04-09T21:15:12.584Z,5.10
2023-04-09T21:17:40.840Z,4.80
2023-04-09T21:20:12.902Z,4.70
2023-04-09T21:22:40.928Z,4.60
2023-04-09T21:25:09.931Z,4.60
2023-04-09T21:27:37.996Z,4.50
2023-04-09T21:30:07.593Z,4.50
2023-04-09T21:32:36.185Z,4.40
2023-04-09T21:35:04.549Z,4.20
2023-04-09T21:37:34.342Z,4.10
2023-04-09T21:40:02.406Z,3.90
2023-04-09T21:42:31.493Z,3.70
2023-04-09T21:44:59.606Z,3.70
2023-04-09T21:47:28.064Z,3.80
2023-04-09T21:49:56.959Z,3.50
2023-04-09T21:52:25.456Z,3.40
2023-04-09T21:54:54.911Z,3.30
2023-04-09T21:57:23.582Z,3.20
2023-04-09T21:59:51.648Z,3.30
2023-04-09T22:02:21.479Z,3.40
2023-04-09T22:04:49.923Z,3.40
2023-04-09T22:07:18.029Z,3.40
2023-04-09T22:09:46.166Z,3.20
2023-04-09T22:12:15.844Z,2.90
2023-04-09T22:14:44.794Z,2.90
2023-04-09T22:17:13.544Z,2.80
2023-04-09T22:19:41.600Z,2.70
2023-04-09T22:22:12.155Z,2.70
2023-04-09T22:24:41.358Z,2.70
2023-04-09T22:27:09.528Z,2.80
2023-04-09T22:29:39.053Z,2.90
2023-04-09T22:32:07.268Z,3.00
2023-04-09T22:34:35.876Z,3.00
2023-04-09T22:37:03.996Z,2.90
2023-04-09T22:39:32.074Z,2.80
2023-04-09T22:42:00.170Z,2.70
2023-04-09T22:44:28.398Z,2.70
2023-04-09T22:46:57.892Z,2.50
2023-04-09T22:49:26.414Z,2.50
2023-04-09T22:51:54.696Z,2.40
2023-04-09T22:54:24.413Z,2.40
2023-04-09T22:56:52.837Z,2.50
2023-04-09T22:59:25.102Z,2.50
2023-04-09T23:01:57.121Z,2.30
2023-04-09T23:04:25.549Z,2.30
2023-04-09T23:06:54.528Z,2.30
2023-04-09T23:09:22.837Z,2.30
2023-04-09T23:11:50.939Z,2.40
2023-04-09T23:14:19.420Z,2.40
2023-04-09T23:16:47.494Z,2.50
2023-04-09T23:19:16.949Z,2.70
2023-04-09T23:21:45.238Z,2.70
2023-04-09T23:24:13.502Z,2.90
2023-04-09T23:26:41.553Z,3.00
2023-04-09T23:29:09.629Z,3.00
2023-04-09T23:31:37.862Z,3.00
2023-04-09T23:34:06.117Z,3.10
2023-04-09T23:36:35.576Z,3.00
2023-04-09T23:39:04.090Z,2.90
2023-04-09T23:41:32.146Z,2.90
2023-04-09T23:44:00.339Z,3.00
2023-04-09T23:46:28.481Z,3.10
2023-04-09T23:48:56.562Z,3.10
2023-04-09T23:51:24.626Z,3.00
2023-04-09T23:53:54.342Z,2.90
2023-04-09T23:56:23.018Z,2.90
2023-04-09T23:58:51.137Z,2.80
